createdAt,value
2023-03-10T00:02:08.803Z,20.90
2023-03-10T00:04:38.575Z,20.90
2023-03-10T00:07:08.345Z,21.00
2023-03-10T00:09:38.034Z,21.00
2023-03-10T00:12:08.139Z,21.00
2023-03-10T00:14:37.884Z,21.10
2023-03-10T00:17:08.170Z,21.10
2023-03-10T00:19:38.102Z,21.10
2023-03-10T00:22:08.224Z,21.20
2023-03-10T00:24:38.001Z,21.20
2023-03-10T00:27:07.888Z,21.20
2023-03-10T00:29:37.568Z,21.30
2023-03-10T00:32:07.800Z,21.40
2023-03-10T00:34:38.008Z,21.40
2023-03-10T00:37:07.760Z,21.40
2023-03-10T00:39:37.449Z,21.50
2023-03-10T00:42:07.150Z,21.50
2023-03-10T00:44:36.852Z,21.50
2023-03-10T00:47:06.517Z,21.50
2023-03-10T00:49:36.187Z,21.60
2023-03-10T00:52:06.067Z,21.60
2023-03-10T00:54:35.727Z,21.60
2023-03-10T00:57:06.200Z,21.70
2023-03-10T00:59:48.010Z,21.80
2023-03-10T01:02:21.577Z,21.90
2023-03-10T01:04:51.294Z,21.90
2023-03-10T01:07:20.933Z,22.00
2023-03-10T01:09:50.611Z,22.10
2023-03-10T01:12:20.307Z,22.20
2023-03-10T01:14:49.942Z,22.20
2023-03-10T01:17:19.614Z,22.30
2023-03-10T01:19:49.326Z,22.30
2023-03-10T01:22:18.936Z,22.40
2023-03-10T01:24:48.565Z,22.50
2023-03-10T01:27:18.345Z,22.70
2023-03-10T01:29:47.991Z,22.70
2023-03-10T01:32:20.300Z,22.80
2023-03-10T01:34:50.213Z,22.90
2023-03-10T01:37:20.545Z,23.10
2023-03-10T01:39:50.267Z,23.20
2023-03-10T01:42:19.853Z,23.30
2023-03-10T01:45:11.238Z,23.40
2023-03-10T01:47:40.847Z,23.50
2023-03-10T01:50:15.721Z,23.60
2023-03-10T01:52:48.670Z,23.60
2023-03-10T01:55:23.675Z,23.70
2023-03-10T01:57:56.531Z,23.80
2023-03-10T02:00:29.724Z,23.90
2023-03-10T02:03:11.681Z,23.90
2023-03-10T02:05:47.830Z,24.00
2023-03-10T02:08:18.867Z,24.00
2023-03-10T02:10:50.265Z,24.10
2023-03-10T02:13:20.134Z,24.10
2023-03-10T02:15:50.009Z,24.20
2023-03-10T02:18:22.157Z,24.20
2023-03-10T02:21:25.678Z,24.30
2023-03-10T02:24:14.494Z,24.30
2023-03-10T02:27:05.022Z,24.40
2023-03-10T02:29:58.009Z,24.50
2023-03-10T02:32:31.417Z,24.50
2023-03-10T02:35:01.995Z,24.60
2023-03-10T02:37:35.936Z,24.60
2023-03-10T02:40:07.174Z,24.70
2023-03-10T02:42:38.521Z,24.70
2023-03-10T02:45:08.916Z,24.80
2023-03-10T02:47:38.644Z,24.90
2023-03-10T02:50:10.182Z,24.90
2023-03-10T02:53:08.295Z,25.00
2023-03-10T02:55:37.895Z,25.10
2023-03-10T02:58:07.737Z,25.10
2023-03-10T03:00:40.584Z,25.20
2023-03-10T03:03:11.693Z,25.30
2023-03-10T03:05:41.848Z,25.30
2023-03-10T03:08:12.150Z,25.40
2023-03-10T03:10:42.375Z,25.50
2023-03-10T03:13:12.403Z,25.50
2023-03-10T03:15:42.043Z,25.60
2023-03-10T03:18:11.798Z,25.70
2023-03-10T03:20:42.962Z,25.80
2023-03-10T03:23:13.038Z,25.80
2023-03-10T03:25:44.319Z,25.90
2023-03-10T03:28:15.183Z,26.00
2023-03-10T03:30:48.366Z,26.00
2023-03-10T03:33:18.389Z,26.10
2023-03-10T03:35:48.906Z,26.10
2023-03-10T03:38:18.639Z,26.20
2023-03-10T03:40:48.508Z,26.30
2023-03-10T03:43:18.193Z,26.40
2023-03-10T03:45:47.857Z,26.40
2023-03-10T03:48:17.511Z,26.40
2023-03-10T03:50:47.209Z,26.50
2023-03-10T03:53:17.085Z,26.60
2023-03-10T03:55:46.788Z,26.60
2023-03-10T03:58:16.456Z,26.70
2023-03-10T04:00:46.298Z,26.70
2023-03-10T04:03:15.961Z,26.80
2023-03-10T04:05:47.229Z,26.80
2023-03-10T04:08:17.284Z,26.90
2023-03-10T04:10:56.554Z,27.00
2023-03-10T04:13:26.248Z,27.10
2023-03-10T04:16:02.377Z,27.20
2023-03-10T04:18:31.990Z,27.20
2023-03-10T04:21:01.695Z,27.20
2023-03-10T04:23:31.348Z,27.30
2023-03-10T04:26:00.968Z,27.40
2023-03-10T04:28:30.545Z,27.50
2023-03-10T04:31:00.236Z,27.60
2023-03-10T04:33:29.905Z,27.60
2023-03-10T04:36:04.690Z,27.70
2023-03-10T04:38:34.789Z,27.80
2023-03-10T04:41:04.904Z,27.90
2023-03-10T04:43:34.936Z,27.90
2023-03-10T04:46:04.582Z,27.90
2023-03-10T04:48:34.585Z,28.00
2023-03-10T04:51:07.226Z,28.00
2023-03-10T04:53:38.313Z,28.10
2023-03-10T04:56:10.154Z,28.10
2023-03-10T04:58:39.738Z,28.10
2023-03-10T05:01:14.167Z,28.20
2023-03-10T05:03:43.996Z,28.30
2023-03-10T05:06:17.031Z,28.40
2023-03-10T05:08:46.833Z,28.50
2023-03-10T05:11:16.692Z,28.60
2023-03-10T05:13:46.630Z,28.60
2023-03-10T05:16:24.116Z,28.60
2023-03-10T05:18:53.875Z,28.70
2023-03-10T05:21:23.975Z,28.70
2023-03-10T05:23:53.685Z,28.80
2023-03-10T05:26:23.474Z,28.80
2023-03-10T05:28:53.110Z,28.80
2023-03-10T05:31:27.988Z,28.80
2023-03-10T05:33:58.269Z,28.80
2023-03-10T05:36:28.625Z,28.80
2023-03-10T05:38:58.200Z,28.80
2023-03-10T05:41:27.929Z,28.80
2023-03-10T05:43:58.250Z,28.80
2023-03-10T05:46:28.155Z,28.90
2023-03-10T05:48:58.662Z,28.90
2023-03-10T05:51:28.237Z,28.90
2023-03-10T05:53:57.863Z,29.00
2023-03-10T05:56:27.811Z,29.10
2023-03-10T05:58:57.457Z,29.10
2023-03-10T06:01:27.094Z,29.20
2023-03-10T06:03:56.799Z,29.30
2023-03-10T06:06:26.472Z,29.40
2023-03-10T06:08:56.183Z,29.50
2023-03-10T06:11:26.095Z,29.50
2023-03-10T06:13:55.998Z,29.50
2023-03-10T06:16:25.588Z,29.60
2023-03-10T06:18:57.332Z,29.60
2023-03-10T06:21:27.803Z,29.60
2023-03-10T06:23:57.566Z,29.70
2023-03-10T06:26:27.368Z,29.80
2023-03-10T06:28:56.995Z,29.80
2023-03-10T06:31:27.014Z,29.90
2023-03-10T06:33:56.703Z,29.90
2023-03-10T06:36:28.402Z,29.90
2023-03-10T06:38:58.644Z,29.90
2023-03-10T06:41:29.725Z,29.90
2023-03-10T06:43:59.803Z,30.00
2023-03-10T06:46:30.593Z,30.00
2023-03-10T06:49:00.228Z,30.00
2023-03-10T06:51:29.977Z,30.10
2023-03-10T06:53:59.769Z,30.10
2023-03-10T06:56:29.417Z,30.20
2023-03-10T06:58:59.280Z,30.30
2023-03-10T07:01:32.055Z,30.30
2023-03-10T07:04:03.080Z,30.30
2023-03-10T07:06:33.017Z,30.30
2023-03-10T07:09:02.800Z,30.30
2023-03-10T07:11:32.669Z,30.30
2023-03-10T07:14:02.421Z,30.40
2023-03-10T07:16:32.169Z,30.50
2023-03-10T07:19:01.915Z,30.50
2023-03-10T07:21:31.581Z,30.70
2023-03-10T07:24:01.603Z,30.70
2023-03-10T07:26:31.585Z,30.70
2023-03-10T07:29:01.400Z,30.70
2023-03-10T07:31:31.962Z,30.70
2023-03-10T07:34:03.654Z,30.70
2023-03-10T07:36:33.401Z,30.70
2023-03-10T07:39:03.462Z,30.60
2023-03-10T07:41:33.202Z,30.70
2023-03-10T07:44:02.840Z,30.70
2023-03-10T07:46:32.613Z,30.70
2023-03-10T07:49:05.909Z,30.70
2023-03-10T07:51:35.834Z,30.70
2023-03-10T07:54:05.661Z,30.80
2023-03-10T07:56:35.378Z,30.80
2023-03-10T07:59:05.103Z,30.80
2023-03-10T08:01:34.744Z,30.80
2023-03-10T08:04:04.545Z,30.90
2023-03-10T08:06:35.674Z,31.00
2023-03-10T08:09:05.469Z,31.00
2023-03-10T08:11:35.516Z,31.00
2023-03-10T08:14:05.991Z,31.00
2023-03-10T08:16:35.720Z,31.00
2023-03-10T08:19:05.752Z,31.10
2023-03-10T08:21:35.458Z,31.10
2023-03-10T08:24:05.272Z,31.10
2023-03-10T08:26:35.479Z,31.10
2023-03-10T08:29:05.512Z,31.20
2023-03-10T08:31:35.318Z,31.20
2023-03-10T08:34:05.057Z,31.20
2023-03-10T08:36:35.286Z,31.20
2023-03-10T08:39:07.475Z,31.20
2023-03-10T08:41:50.604Z,31.20
2023-03-10T08:44:21.321Z,31.10
2023-03-10T08:46:52.386Z,31.00
2023-03-10T08:49:23.703Z,31.00
2023-03-10T08:51:53.519Z,31.00
2023-03-10T08:54:24.437Z,30.90
2023-03-10T08:56:54.413Z,30.90
2023-03-10T08:59:24.286Z,30.90
2023-03-10T09:01:54.106Z,31.00
2023-03-10T09:04:23.804Z,31.00
2023-03-10T09:06:53.514Z,31.00
2023-03-10T09:09:23.169Z,31.00
2023-03-10T09:11:52.776Z,31.00
2023-03-10T09:14:22.583Z,31.00
2023-03-10T09:16:52.294Z,30.90
2023-03-10T09:19:22.113Z,31.00
2023-03-10T09:21:51.929Z,30.90
2023-03-10T09:24:21.670Z,31.00
2023-03-10T09:26:51.311Z,30.90
2023-03-10T09:29:27.085Z,30.90
2023-03-10T09:32:08.533Z,30.90
2023-03-10T09:34:38.360Z,30.90
2023-03-10T09:37:08.710Z,30.90
2023-03-10T09:39:38.982Z,30.90
2023-03-10T09:42:47.869Z,30.80
2023-03-10T09:45:37.552Z,30.80
2023-03-10T09:48:34.703Z,30.80
2023-03-10T09:51:16.513Z,30.80
2023-03-10T09:54:11.333Z,30.80
2023-03-10T09:56:41.317Z,30.80
2023-03-10T09:59:19.631Z,30.80
2023-03-10T10:01:52.042Z,30.70
2023-03-10T10:04:41.098Z,30.70
2023-03-10T10:07:24.020Z,30.60
2023-03-10T10:10:26.396Z,30.60
2023-03-10T10:12:56.550Z,30.60
2023-03-10T10:15:28.925Z,30.60
2023-03-10T10:18:24.112Z,30.50
2023-03-10T10:21:18.036Z,30.50
2023-03-10T10:23:54.651Z,30.50
2023-03-10T10:26:28.036Z,30.40
2023-03-10T10:29:00.542Z,30.40
2023-03-10T10:31:35.831Z,30.40
2023-03-10T10:34:08.828Z,30.30
2023-03-10T10:36:50.235Z,30.20
2023-03-10T10:39:35.150Z,30.20
2023-03-10T10:42:26.441Z,30.20
2023-03-10T10:45:03.846Z,30.10
2023-03-10T10:47:51.959Z,30.10
2023-03-10T10:50:31.436Z,30.00
2023-03-10T10:53:23.400Z,30.00
2023-03-10T10:56:07.423Z,30.00
2023-03-10T10:58:39.500Z,29.90
2023-03-10T11:01:14.185Z,29.80
2023-03-10T11:03:47.910Z,29.80
2023-03-10T11:06:33.983Z,29.70
2023-03-10T11:09:25.164Z,29.60
2023-03-10T11:12:33.844Z,29.60
2023-03-10T11:15:34.983Z,29.50
2023-03-10T11:18:19.426Z,29.40
2023-03-10T11:21:13.194Z,29.40
2023-03-10T11:24:22.185Z,29.40
2023-03-10T11:27:20.536Z,29.20
2023-03-10T11:30:01.175Z,29.20
2023-03-10T11:32:58.631Z,29.10
2023-03-10T11:35:49.624Z,29.00
2023-03-10T11:38:36.312Z,28.90
2023-03-10T11:41:29.333Z,28.90
2023-03-10T11:44:23.052Z,28.80
2023-03-10T11:47:26.716Z,28.70
2023-03-10T11:50:05.935Z,28.60
2023-03-10T11:52:36.475Z,28.60
2023-03-10T11:55:19.792Z,28.50
2023-03-10T11:57:54.665Z,28.50
2023-03-10T12:00:34.629Z,28.40
2023-03-10T12:03:36.746Z,28.30
2023-03-10T12:06:16.801Z,28.30
2023-03-10T12:08:47.152Z,28.20
2023-03-10T12:11:21.501Z,28.20
2023-03-10T12:13:55.513Z,28.10
2023-03-10T12:16:29.197Z,28.00
2023-03-10T12:18:59.753Z,28.00
2023-03-10T12:21:32.628Z,28.00
2023-03-10T12:24:06.775Z,27.90
2023-03-10T12:27:00.230Z,27.90
2023-03-10T12:29:36.910Z,27.80
2023-03-10T12:32:07.333Z,27.80
2023-03-10T12:34:36.986Z,27.70
2023-03-10T12:37:10.159Z,27.70
2023-03-10T12:39:44.881Z,27.60
2023-03-10T12:42:37.862Z,27.50
2023-03-10T12:45:31.052Z,27.40
2023-03-10T12:48:18.561Z,27.20
2023-03-10T12:51:06.809Z,27.10
2023-03-10T12:53:50.256Z,27.10
2023-03-10T12:56:41.092Z,27.00
2023-03-10T12:59:34.901Z,27.00
2023-03-10T13:02:06.149Z,26.90
2023-03-10T13:04:36.858Z,26.90
2023-03-10T13:07:06.770Z,26.90
2023-03-10T13:09:44.693Z,26.80
2023-03-10T13:12:19.355Z,26.80
2023-03-10T13:14:53.298Z,26.80
2023-03-10T13:17:27.225Z,26.70
2023-03-10T13:20:10.344Z,26.70
2023-03-10T13:22:40.149Z,26.70
2023-03-10T13:25:16.469Z,26.60
2023-03-10T13:27:46.152Z,26.60
2023-03-10T13:30:28.192Z,26.50
2023-03-10T13:33:04.216Z,26.50
2023-03-10T13:35:38.645Z,26.40
2023-03-10T13:38:22.998Z,26.40
2023-03-10T13:41:03.835Z,26.40
2023-03-10T13:43:50.319Z,26.30
2023-03-10T13:46:31.002Z,26.30
2023-03-10T13:49:08.003Z,26.20
2023-03-10T13:51:40.028Z,26.10
2023-03-10T13:54:30.726Z,26.10
2023-03-10T13:57:31.597Z,26.10
2023-03-10T14:00:03.571Z,26.10
2023-03-10T14:02:37.586Z,26.10
2023-03-10T14:05:09.024Z,26.00
2023-03-10T14:07:40.448Z,26.00
2023-03-10T14:10:17.271Z,25.90
2023-03-10T14:12:55.801Z,25.90
2023-03-10T14:15:32.105Z,25.90
2023-03-10T14:18:21.655Z,25.80
2023-03-10T14:20:51.380Z,25.80
2023-03-10T14:23:29.710Z,25.80
2023-03-10T14:26:00.388Z,25.70
2023-03-10T14:28:35.033Z,25.70
2023-03-10T14:31:06.326Z,25.70
2023-03-10T14:33:36.198Z,25.60
2023-03-10T14:36:07.710Z,25.60
2023-03-10T14:38:37.521Z,25.50
2023-03-10T14:41:07.974Z,25.50
2023-03-10T14:43:37.653Z,25.50
2023-03-10T14:46:07.888Z,25.40
2023-03-10T14:48:42.611Z,25.40
2023-03-10T14:51:32.573Z,25.30
2023-03-10T14:54:02.515Z,25.30
2023-03-10T14:56:33.848Z,25.30
2023-03-10T14:59:03.974Z,25.30
2023-03-10T15:01:33.821Z,25.20
2023-03-10T15:04:03.442Z,25.20
2023-03-10T15:06:33.076Z,25.20
2023-03-10T15:09:02.864Z,25.10
2023-03-10T15:11:37.334Z,25.10
2023-03-10T15:14:15.829Z,25.10
2023-03-10T15:16:45.795Z,25.10
2023-03-10T15:19:26.854Z,25.00
2023-03-10T15:21:56.839Z,25.00
2023-03-10T15:24:26.493Z,24.90
2023-03-10T15:26:56.150Z,24.90
2023-03-10T15:29:25.758Z,24.80
2023-03-10T15:31:55.423Z,24.80
2023-03-10T15:34:25.010Z,24.70
2023-03-10T15:36:54.615Z,24.70
2023-03-10T15:39:31.460Z,24.70
2023-03-10T15:42:01.582Z,24.70
2023-03-10T15:44:31.313Z,24.70
2023-03-10T15:47:01.378Z,24.70
2023-03-10T15:49:31.597Z,24.60
2023-03-10T15:52:01.404Z,24.60
2023-03-10T15:54:31.102Z,24.60
2023-03-10T15:57:00.849Z,24.60
2023-03-10T15:59:31.089Z,24.50
2023-03-10T16:02:00.839Z,24.50
2023-03-10T16:04:32.413Z,24.50
2023-03-10T16:07:07.452Z,24.50
2023-03-10T16:09:37.194Z,24.40
2023-03-10T16:12:07.238Z,24.40
2023-03-10T16:14:36.908Z,24.40
2023-03-10T16:17:06.682Z,24.30
2023-03-10T16:19:36.363Z,24.30
2023-03-10T16:22:06.021Z,24.30
2023-03-10T16:24:36.144Z,24.30
2023-03-10T16:27:06.076Z,24.30
2023-03-10T16:29:35.884Z,24.30
2023-03-10T16:32:05.629Z,24.20
2023-03-10T16:34:35.347Z,24.20
2023-03-10T16:37:05.104Z,24.20
2023-03-10T16:39:34.839Z,24.10
2023-03-10T16:42:05.940Z,24.20
2023-03-10T16:44:35.656Z,24.20
2023-03-10T16:47:05.936Z,24.20
2023-03-10T16:49:38.104Z,24.10
2023-03-10T16:52:14.171Z,24.10
2023-03-10T16:54:43.814Z,24.10
2023-03-10T16:57:13.956Z,24.10
2023-03-10T16:59:46.259Z,24.10
2023-03-10T17:02:19.205Z,24.10
2023-03-10T17:04:49.002Z,24.00
2023-03-10T17:07:18.686Z,24.00
2023-03-10T17:09:48.294Z,24.00
2023-03-10T17:12:18.007Z,23.90
2023-03-10T17:14:47.669Z,23.90
2023-03-10T17:17:17.254Z,23.90
2023-03-10T17:19:46.916Z,23.90
2023-03-10T17:22:16.478Z,23.90
2023-03-10T17:24:46.355Z,23.80
2023-03-10T17:27:16.068Z,23.80
2023-03-10T17:29:45.709Z,23.60
2023-03-10T17:32:15.746Z,23.60
2023-03-10T17:34:45.842Z,23.50
2023-03-10T17:37:15.542Z,23.50
2023-03-10T17:39:45.259Z,23.50
2023-03-10T17:42:14.929Z,23.50
2023-03-10T17:44:44.692Z,23.50
2023-03-10T17:47:14.584Z,23.50
2023-03-10T17:49:44.886Z,23.50
2023-03-10T17:52:14.525Z,23.40
2023-03-10T17:54:44.400Z,23.50
2023-03-10T17:57:14.072Z,23.40
2023-03-10T17:59:43.777Z,23.40
2023-03-10T18:02:14.949Z,23.40
2023-03-10T18:04:46.919Z,23.40
2023-03-10T18:07:16.538Z,23.40
2023-03-10T18:09:46.241Z,23.40
2023-03-10T18:12:15.840Z,23.30
2023-03-10T18:14:45.364Z,23.30
2023-03-10T18:17:15.056Z,23.30
2023-03-10T18:19:44.738Z,23.30
2023-03-10T18:22:15.373Z,23.30
2023-03-10T18:24:45.016Z,23.20
2023-03-10T18:27:14.851Z,23.20
2023-03-10T18:29:44.441Z,23.20
2023-03-10T18:32:14.188Z,23.20
2023-03-10T18:34:43.804Z,23.20
2023-03-10T18:37:13.663Z,23.10
2023-03-10T18:39:43.378Z,23.10
2023-03-10T18:42:14.301Z,23.10
2023-03-10T18:44:48.909Z,23.10
2023-03-10T18:47:18.788Z,23.00
2023-03-10T18:49:49.387Z,23.00
2023-03-10T18:52:19.150Z,23.00
2023-03-10T18:54:50.151Z,23.00
2023-03-10T18:57:19.733Z,23.00
2023-03-10T18:59:49.382Z,23.00
2023-03-10T19:02:19.007Z,23.00
2023-03-10T19:04:49.644Z,23.00
2023-03-10T19:07:22.145Z,23.00
2023-03-10T19:09:56.347Z,23.00
2023-03-10T19:12:26.600Z,22.90
2023-03-10T19:15:09.362Z,22.90
2023-03-10T19:17:41.283Z,22.90
2023-03-10T19:20:13.897Z,22.90
2023-03-10T19:22:44.122Z,22.90
2023-03-10T19:25:14.720Z,22.80
2023-03-10T19:27:44.352Z,22.80
2023-03-10T19:30:18.021Z,22.80
2023-03-10T19:32:47.982Z,22.70
2023-03-10T19:35:22.174Z,22.70
2023-03-10T19:37:51.949Z,22.70
2023-03-10T19:40:23.280Z,22.70
2023-03-10T19:42:52.968Z,22.70
2023-03-10T19:45:22.632Z,22.70
2023-03-10T19:47:54.015Z,22.70
2023-03-10T19:50:24.062Z,22.60
2023-03-10T19:52:53.817Z,22.60
2023-03-10T19:55:25.660Z,22.60
2023-03-10T19:57:57.736Z,22.60
2023-03-10T20:00:32.795Z,22.60
2023-03-10T20:03:02.430Z,22.60
2023-03-10T20:05:31.982Z,22.60
2023-03-10T20:08:02.762Z,22.60
2023-03-10T20:10:32.402Z,22.50
2023-03-10T20:13:02.040Z,22.50
2023-03-10T20:15:31.907Z,22.50
2023-03-10T20:18:02.696Z,22.50
2023-03-10T20:20:33.346Z,22.50
2023-03-10T20:23:02.985Z,22.40
2023-03-10T20:25:32.729Z,22.50
2023-03-10T20:28:02.473Z,22.40
2023-03-10T20:30:32.818Z,22.40
2023-03-10T20:33:03.158Z,22.40
2023-03-10T20:35:34.839Z,22.40
2023-03-10T20:38:04.562Z,22.40
2023-03-10T20:40:34.378Z,22.40
2023-03-10T20:43:04.050Z,22.30
2023-03-10T20:45:33.948Z,22.30
2023-03-10T20:48:04.039Z,22.30
2023-03-10T20:50:35.004Z,22.30
2023-03-10T20:53:05.263Z,22.30
2023-03-10T20:55:35.075Z,22.20
2023-03-10T20:58:04.772Z,22.20
2023-03-10T21:00:34.585Z,22.20
2023-03-10T21:03:05.982Z,22.20
2023-03-10T21:05:35.721Z,22.20
2023-03-10T21:08:05.477Z,22.20
2023-03-10T21:10:35.138Z,22.20
2023-03-10T21:13:04.897Z,22.20
2023-03-10T21:15:34.829Z,22.20
2023-03-10T21:18:04.447Z,22.20
2023-03-10T21:20:34.428Z,22.20
2023-03-10T21:23:04.190Z,22.10
2023-03-10T21:25:33.950Z,22.10
2023-03-10T21:28:03.686Z,22.10
2023-03-10T21:30:35.766Z,22.10
2023-03-10T21:33:07.209Z,22.10
2023-03-10T21:35:40.159Z,22.10
2023-03-10T21:38:09.828Z,22.10
2023-03-10T21:40:39.702Z,22.10
2023-03-10T21:43:09.428Z,22.10
2023-03-10T21:45:40.136Z,22.10
2023-03-10T21:48:10.180Z,22.00
2023-03-10T21:50:41.061Z,22.00
2023-03-10T21:53:11.013Z,22.00
2023-03-10T21:55:40.766Z,22.00
2023-03-10T21:58:10.463Z,22.00
2023-03-10T22:00:40.868Z,22.00
2023-03-10T22:03:10.483Z,21.90
2023-03-10T22:05:40.156Z,22.00
2023-03-10T22:08:10.015Z,21.90
2023-03-10T22:10:39.673Z,22.00
2023-03-10T22:13:09.262Z,21.90
2023-03-10T22:15:39.128Z,21.90
2023-03-10T22:18:08.987Z,21.90
2023-03-10T22:20:38.768Z,21.90
2023-03-10T22:23:09.555Z,21.90
2023-03-10T22:25:39.348Z,21.90
2023-03-10T22:28:09.025Z,21.90
2023-03-10T22:30:40.325Z,21.90
2023-03-10T22:33:10.111Z,21.80
2023-03-10T22:35:40.632Z,21.80
2023-03-10T22:38:10.353Z,21.70
2023-03-10T22:40:39.990Z,21.70
2023-03-10T22:43:09.643Z,21.70
2023-03-10T22:45:40.198Z,21.70
2023-03-10T22:48:10.026Z,21.70
2023-03-10T22:50:42.701Z,21.60
2023-03-10T22:53:17.428Z,21.70
2023-03-10T22:55:49.551Z,21.70
2023-03-10T22:58:19.364Z,21.60
2023-03-10T23:00:49.180Z,21.60
2023-03-10T23:03:18.986Z,21.60
2023-03-10T23:05:48.778Z,21.60
2023-03-10T23:08:18.623Z,21.50
2023-03-10T23:10:48.341Z,21.50
2023-03-10T23:13:19.192Z,21.50
2023-03-10T23:15:49.340Z,21.50
2023-03-10T23:18:19.174Z,21.50
2023-03-10T23:20:50.798Z,21.50
2023-03-10T23:23:20.525Z,21.50
2023-03-10T23:25:52.671Z,21.50
2023-03-10T23:28:23.386Z,21.50
2023-03-10T23:30:55.869Z,21.50
2023-03-10T23:33:26.576Z,21.50
2023-03-10T23:35:56.799Z,21.50
2023-03-10T23:38:28.114Z,21.40
2023-03-10T23:40:58.120Z,21.40
2023-03-10T23:43:27.770Z,21.40
2023-03-10T23:45:57.375Z,21.40
2023-03-10T23:48:27.058Z,21.30
2023-03-10T23:50:57.649Z,21.30
2023-03-10T23:53:30.148Z,21.20
2023-03-10T23:56:01.716Z,21.20
2023-03-10T23:58:31.368Z,21.20
